createdAt,value
2022-11-20T00:04:43.079Z,100.00
2022-11-20T00:09:46.134Z,100.00
2022-11-20T00:14:49.103Z,100.00
2022-11-20T00:19:51.633Z,100.00
2022-11-20T00:24:54.184Z,100.00
2022-11-20T00:29:56.979Z,100.00
2022-11-20T00:34:59.560Z,100.00
2022-11-20T00:40:02.143Z,100.00
2022-11-20T00:45:06.064Z,100.00
2022-11-20T00:50:09.070Z,100.00
2022-11-20T00:55:11.694Z,100.00
2022-11-20T01:00:16.365Z,100.00
2022-11-20T01:05:18.880Z,100.00
2022-11-20T01:10:21.456Z,100.00
2022-11-20T01:15:23.981Z,100.00
2022-11-20T01:20:26.501Z,100.00
2022-11-20T01:25:29.794Z,99.78
2022-11-20T01:30:32.386Z,99.76
2022-11-20T01:35:34.920Z,99.32
2022-11-20T01:40:37.442Z,99.00
2022-11-20T01:45:57.305Z,98.71
2022-11-20T01:51:01.984Z,97.83
2022-11-20T01:56:09.575Z,97.61
2022-11-20T02:01:13.831Z,97.44
2022-11-20T02:06:23.992Z,96.60
2022-11-20T02:11:26.524Z,96.96
2022-11-20T02:16:33.389Z,96.58
2022-11-20T02:22:00.395Z,96.50
2022-11-20T02:27:12.014Z,95.55
2022-11-20T02:32:32.952Z,95.01
2022-11-20T02:37:39.863Z,95.41
2022-11-20T02:42:42.511Z,95.27
2022-11-20T02:47:45.173Z,94.97
2022-11-20T02:52:47.924Z,94.99
2022-11-20T02:57:50.506Z,94.77
2022-11-20T03:02:53.179Z,93.88
2022-11-20T03:07:55.708Z,94.67
2022-11-20T03:12:58.407Z,94.78
2022-11-20T03:18:00.945Z,94.81
2022-11-20T03:23:03.851Z,95.06
2022-11-20T03:28:06.537Z,95.30
2022-11-20T03:33:09.334Z,95.08
2022-11-20T03:38:11.881Z,95.10
2022-11-20T03:43:14.408Z,94.91
2022-11-20T03:48:16.914Z,95.70
2022-11-20T03:53:19.664Z,95.16
2022-11-20T03:58:22.174Z,95.47
2022-11-20T04:03:24.787Z,95.95
2022-11-20T04:08:27.411Z,94.99
2022-11-20T04:13:29.972Z,95.10
2022-11-20T04:18:33.818Z,94.83
2022-11-20T04:23:36.425Z,94.97
2022-11-20T04:28:40.051Z,95.12
2022-11-20T04:33:43.918Z,95.18
2022-11-20T04:38:47.042Z,94.63
2022-11-20T04:43:51.551Z,93.96
2022-11-20T04:48:54.564Z,94.34
2022-11-20T04:53:57.759Z,93.94
2022-11-20T04:59:03.773Z,93.63
2022-11-20T05:04:06.931Z,93.52
2022-11-20T05:09:09.544Z,93.20
2022-11-20T05:14:12.110Z,92.22
2022-11-20T05:19:14.838Z,92.62
2022-11-20T05:24:17.372Z,92.37
2022-11-20T05:29:20.460Z,92.43
2022-11-20T05:34:23.604Z,92.11
2022-11-20T05:39:26.094Z,92.29
2022-11-20T05:44:28.646Z,92.10
2022-11-20T05:49:31.179Z,91.99
2022-11-20T05:54:33.817Z,91.71
2022-11-20T05:59:36.291Z,92.44
2022-11-20T06:04:38.858Z,91.97
2022-11-20T06:09:41.640Z,91.84
2022-11-20T06:14:44.362Z,91.53
2022-11-20T06:19:47.041Z,91.60
2022-11-20T06:24:49.717Z,91.25
2022-11-20T06:29:52.203Z,90.78
2022-11-20T06:34:54.855Z,90.75
2022-11-20T06:39:57.411Z,90.15
2022-11-20T06:44:59.989Z,90.17
2022-11-20T06:50:02.679Z,89.88
2022-11-20T06:55:06.438Z,88.85
2022-11-20T07:00:09.593Z,88.64
2022-11-20T07:05:12.380Z,88.44
2022-11-20T07:10:15.045Z,88.20
2022-11-20T07:15:18.338Z,88.39
2022-11-20T07:20:21.054Z,87.52
2022-11-20T07:25:24.598Z,87.60
2022-11-20T07:30:28.795Z,86.92
2022-11-20T07:35:31.394Z,86.48
2022-11-20T07:40:33.974Z,86.22
2022-11-20T07:45:36.525Z,85.68
2022-11-20T07:50:39.626Z,85.32
2022-11-20T07:55:42.144Z,84.93
2022-11-20T08:00:44.753Z,85.16
2022-11-20T08:05:47.273Z,84.33
2022-11-20T08:10:49.835Z,83.27
2022-11-20T08:15:52.469Z,82.75
2022-11-20T08:20:55.058Z,83.12
2022-11-20T08:25:57.536Z,82.86
2022-11-20T08:31:04.320Z,82.20
2022-11-20T08:36:08.392Z,81.30
2022-11-20T08:41:29.298Z,81.51
2022-11-20T08:46:37.956Z,81.71
2022-11-20T08:51:41.025Z,81.56
2022-11-20T08:56:43.556Z,81.04
2022-11-20T09:01:46.132Z,81.71
2022-11-20T09:06:52.031Z,81.12
2022-11-20T09:11:54.801Z,80.69
2022-11-20T09:16:57.825Z,81.25
2022-11-20T09:22:01.146Z,80.98
2022-11-20T09:27:05.565Z,82.09
2022-11-20T09:32:08.134Z,82.44
2022-11-20T09:37:11.160Z,83.36
2022-11-20T09:42:38.507Z,83.38
2022-11-20T09:48:00.705Z,82.37
2022-11-20T09:53:14.708Z,81.55
2022-11-20T09:58:41.247Z,82.99
2022-11-20T10:03:59.154Z,82.78
2022-11-20T10:09:15.398Z,84.32
2022-11-20T10:14:42.574Z,84.26
2022-11-20T10:20:28.061Z,83.47
2022-11-20T10:25:59.077Z,83.74
2022-11-20T10:31:05.562Z,83.27
2022-11-20T10:36:20.226Z,84.15
2022-11-20T10:41:31.926Z,84.30
2022-11-20T10:46:59.928Z,84.28
2022-11-20T10:52:26.912Z,83.76
2022-11-20T10:58:08.236Z,84.07
2022-11-20T11:03:24.406Z,83.86
2022-11-20T11:08:34.141Z,83.44
2022-11-20T11:13:36.771Z,83.42
2022-11-20T11:18:41.139Z,82.74
2022-11-20T11:23:44.480Z,82.74
2022-11-20T11:28:57.863Z,82.79
2022-11-20T11:34:17.980Z,83.37
2022-11-20T11:39:22.457Z,83.74
2022-11-20T11:45:03.310Z,82.73
2022-11-20T11:50:26.535Z,83.29
2022-11-20T11:55:44.215Z,82.89
2022-11-20T12:00:55.227Z,82.83
2022-11-20T12:06:17.447Z,83.04
2022-11-20T12:12:05.980Z,82.46
2022-11-20T12:17:12.837Z,82.37
2022-11-20T12:22:50.116Z,82.35
2022-11-20T12:28:37.965Z,82.45
2022-11-20T12:33:52.654Z,82.30
2022-11-20T12:39:03.678Z,82.08
2022-11-20T12:44:54.506Z,81.61
2022-11-20T12:50:06.193Z,81.95
2022-11-20T12:55:18.106Z,81.45
2022-11-20T13:00:24.609Z,80.05
2022-11-20T13:05:39.231Z,81.23
2022-11-20T13:10:52.886Z,81.00
2022-11-20T13:16:17.136Z,80.82
2022-11-20T13:21:36.829Z,80.88
2022-11-20T13:26:40.047Z,80.56
2022-11-20T13:31:46.452Z,80.90
2022-11-20T13:36:54.349Z,81.25
2022-11-20T13:42:02.760Z,81.37
2022-11-20T13:47:21.001Z,80.65
2022-11-20T13:52:45.347Z,81.01
2022-11-20T13:57:47.743Z,80.49
2022-11-20T14:02:59.128Z,79.93
2022-11-20T14:08:06.697Z,80.00
2022-11-20T14:13:21.688Z,79.80
2022-11-20T14:18:27.010Z,80.31
2022-11-20T14:23:30.606Z,79.64
2022-11-20T14:28:33.607Z,80.24
2022-11-20T14:33:37.793Z,80.08
2022-11-20T14:38:41.720Z,79.30
2022-11-20T14:43:48.646Z,79.47
2022-11-20T14:49:01.335Z,79.84
2022-11-20T14:54:10.917Z,80.52
2022-11-20T14:59:27.483Z,80.04
2022-11-20T15:04:31.276Z,80.24
2022-11-20T15:09:34.682Z,80.49
2022-11-20T15:14:37.771Z,79.98
2022-11-20T15:19:40.329Z,80.16
2022-11-20T15:24:43.427Z,80.44
2022-11-20T15:29:46.056Z,80.18
2022-11-20T15:34:48.695Z,80.04
2022-11-20T15:39:51.470Z,79.99
2022-11-20T15:44:53.972Z,80.15
2022-11-20T15:49:56.759Z,80.12
2022-11-20T15:54:59.311Z,80.24
2022-11-20T16:00:02.030Z,80.51
2022-11-20T16:05:14.996Z,80.59
2022-11-20T16:10:17.633Z,79.96
2022-11-20T16:15:38.560Z,79.70
2022-11-20T16:20:41.128Z,80.04
2022-11-20T16:25:44.495Z,79.72
2022-11-20T16:30:47.510Z,80.00
2022-11-20T16:35:50.115Z,80.07
2022-11-20T16:40:52.668Z,80.11
2022-11-20T16:45:55.288Z,80.63
2022-11-20T16:50:57.808Z,80.31
2022-11-20T16:56:14.282Z,79.56
2022-11-20T17:01:21.578Z,79.84
2022-11-20T17:06:26.945Z,80.40
2022-11-20T17:11:29.771Z,80.14
2022-11-20T17:16:32.460Z,80.75
2022-11-20T17:21:36.526Z,81.07
2022-11-20T17:26:41.672Z,80.92
2022-11-20T17:31:45.307Z,81.20
2022-11-20T17:36:47.894Z,80.89
2022-11-20T17:42:10.396Z,80.70
2022-11-20T17:47:13.584Z,80.38
2022-11-20T17:52:17.182Z,80.92
2022-11-20T17:57:38.727Z,81.59
2022-11-20T18:02:41.248Z,81.53
2022-11-20T18:07:44.464Z,81.82
2022-11-20T18:12:46.973Z,82.12
2022-11-20T18:17:49.523Z,82.24
2022-11-20T18:22:52.090Z,82.19
2022-11-20T18:27:54.764Z,82.31
2022-11-20T18:32:57.723Z,82.28
2022-11-20T18:38:00.364Z,81.96
2022-11-20T18:43:21.990Z,81.87
2022-11-20T18:48:24.636Z,81.96
2022-11-20T18:53:27.188Z,81.59
2022-11-20T18:58:29.763Z,81.98
2022-11-20T19:03:32.453Z,82.27
2022-11-20T19:08:36.359Z,82.21
2022-11-20T19:13:39.651Z,82.13
2022-11-20T19:18:43.778Z,81.34
2022-11-20T19:23:51.664Z,81.84
2022-11-20T19:28:55.350Z,81.74
2022-11-20T19:34:02.857Z,82.26
2022-11-20T19:39:07.728Z,82.02
2022-11-20T19:44:14.007Z,82.62
2022-11-20T19:49:16.635Z,82.52
2022-11-20T19:54:19.232Z,83.32
2022-11-20T19:59:22.027Z,82.38
2022-11-20T20:04:25.111Z,82.58
2022-11-20T20:09:27.706Z,81.88
2022-11-20T20:14:31.583Z,82.32
2022-11-20T20:19:34.288Z,81.51
2022-11-20T20:24:36.817Z,81.31
2022-11-20T20:29:39.431Z,81.50
2022-11-20T20:34:42.323Z,81.65
2022-11-20T20:39:44.851Z,81.35
2022-11-20T20:45:05.826Z,80.84
2022-11-20T20:50:11.185Z,80.70
2022-11-20T20:55:13.847Z,80.73
2022-11-20T21:00:18.139Z,80.76
2022-11-20T21:05:20.730Z,80.20
2022-11-20T21:10:23.991Z,80.87
2022-11-20T21:15:27.035Z,80.81
2022-11-20T21:20:48.003Z,80.39
2022-11-20T21:25:50.515Z,80.22
2022-11-20T21:30:53.141Z,80.24
2022-11-20T21:35:58.524Z,80.18
2022-11-20T21:41:01.942Z,79.96
2022-11-20T21:46:09.915Z,80.64
2022-11-20T21:51:15.400Z,80.49
2022-11-20T21:56:20.701Z,80.45
2022-11-20T22:01:29.432Z,79.72
2022-11-20T22:06:34.105Z,79.37
2022-11-20T22:16:39.400Z,79.65
2022-11-20T22:21:42.130Z,80.24
2022-11-20T22:26:44.932Z,80.38
2022-11-20T22:31:48.068Z,81.13
2022-11-20T22:36:50.604Z,81.40
2022-11-20T22:41:53.127Z,81.17
2022-11-20T22:46:55.686Z,81.05
2022-11-20T22:51:58.231Z,80.96
2022-11-20T22:57:00.787Z,81.16
2022-11-20T23:02:03.421Z,81.13
2022-11-20T23:07:06.155Z,81.69
2022-11-20T23:12:08.695Z,80.76
2022-11-20T23:17:11.232Z,81.19
2022-11-20T23:22:13.759Z,81.74
2022-11-20T23:27:19.669Z,82.40
2022-11-20T23:32:22.603Z,82.42
2022-11-20T23:37:25.118Z,81.72
2022-11-20T23:42:27.694Z,81.99
2022-11-20T23:47:30.266Z,81.83
2022-11-20T23:52:32.862Z,82.23
2022-11-20T23:57:35.496Z,83.09
